sensor_id;sensor_type;location;lat;lon;timestamp;temperature;humidity
59961;DHT22;55902;-37.980;-63.602;2023-01-25T00:02:27;23.20;59.30
59961;DHT22;55902;-37.980;-63.602;2023-01-25T00:04:54;23.00;59.90
59961;DHT22;55902;-37.980;-63.602;2023-01-25T00:07:24;22.90;59.90
59961;DHT22;55902;-37.980;-63.602;2023-01-25T00:09:54;22.80;60.90
59961;DHT22;55902;-37.980;-63.602;2023-01-25T00:12:29;22.70;60.80
59961;DHT22;55902;-37.980;-63.602;2023-01-25T00:15:01;22.60;61.00
59961;DHT22;55902;-37.980;-63.602;2023-01-25T00:17:29;22.50;61.10
59961;DHT22;55902;-37.980;-63.602;2023-01-25T00:20:03;22.50;61.10
59961;DHT22;55902;-37.980;-63.602;2023-01-25T00:22:31;22.40;62.60
59961;DHT22;55902;-37.980;-63.602;2023-01-25T00:25:02;22.30;63.40
59961;DHT22;55902;-37.980;-63.602;2023-01-25T00:27:37;22.20;62.40
59961;DHT22;55902;-37.980;-63.602;2023-01-25T00:47:59;21.60;67.30
59961;DHT22;55902;-37.980;-63.602;2023-01-25T00:50:28;21.40;66.00
59961;DHT22;55902;-37.980;-63.602;2023-01-25T00:52:58;21.40;66.80
59961;DHT22;55902;-37.980;-63.602;2023-01-25T00:55:26;21.30;68.40
59961;DHT22;55902;-37.980;-63.602;2023-01-25T00:57:58;21.20;68.40
59961;DHT22;55902;-37.980;-63.602;2023-01-25T01:00:32;21.10;67.60
59961;DHT22;55902;-37.980;-63.602;2023-01-25T01:03:04;21.10;68.50
59961;DHT22;55902;-37.980;-63.602;2023-01-25T01:05:32;21.00;68.90
59961;DHT22;55902;-37.980;-63.602;2023-01-25T01:08:03;20.90;69.80
59961;DHT22;55902;-37.980;-63.602;2023-01-25T01:10:37;20.80;71.80
59961;DHT22;55902;-37.980;-63.602;2023-01-25T01:13:08;20.70;72.30
59961;DHT22;55902;-37.980;-63.602;2023-01-25T01:15:36;20.50;74.10
59961;DHT22;55902;-37.980;-63.602;2023-01-25T01:18:08;20.50;74.10
59961;DHT22;55902;-37.980;-63.602;2023-01-25T01:20:37;20.40;74.20
59961;DHT22;55902;-37.980;-63.602;2023-01-25T01:23:11;20.30;75.40
59961;DHT22;55902;-37.980;-63.602;2023-01-25T01:25:39;20.20;76.00
59961;DHT22;55902;-37.980;-63.602;2023-01-25T01:38:13;19.90;78.90
59961;DHT22;55902;-37.980;-63.602;2023-01-25T01:40:48;19.80;78.60
59961;DHT22;55902;-37.980;-63.602;2023-01-25T01:43:26;19.80;80.20
59961;DHT22;55902;-37.980;-63.602;2023-01-25T01:46:04;19.70;81.20
59961;DHT22;55902;-37.980;-63.602;2023-01-25T01:51:25;19.60;80.90
59961;DHT22;55902;-37.980;-63.602;2023-01-25T01:54:11;19.60;80.30
59961;DHT22;55902;-37.980;-63.602;2023-01-25T01:57:23;19.50;80.80
59961;DHT22;55902;-37.980;-63.602;2023-01-25T02:00:05;19.40;82.40
59961;DHT22;55902;-37.980;-63.602;2023-01-25T02:02:40;19.40;82.50
59961;DHT22;55902;-37.980;-63.602;2023-01-25T02:05:13;19.30;82.50
59961;DHT22;55902;-37.980;-63.602;2023-01-25T02:07:49;19.30;83.10
59961;DHT22;55902;-37.980;-63.602;2023-01-25T02:10:24;19.20;83.60
59961;DHT22;55902;-37.980;-63.602;2023-01-25T02:12:55;19.20;82.90
59961;DHT22;55902;-37.980;-63.602;2023-01-25T02:15:27;19.10;83.50
59961;DHT22;55902;-37.980;-63.602;2023-01-25T02:17:59;19.10;82.60
59961;DHT22;55902;-37.980;-63.602;2023-01-25T02:20:46;19.10;83.10
59961;DHT22;55902;-37.980;-63.602;2023-01-25T02:23:28;19.10;82.60
59961;DHT22;55902;-37.980;-63.602;2023-01-25T02:26:00;19.10;83.10
59961;DHT22;55902;-37.980;-63.602;2023-01-25T02:31:57;18.90;82.30
59961;DHT22;55902;-37.980;-63.602;2023-01-25T02:34:28;18.90;82.40
59961;DHT22;55902;-37.980;-63.602;2023-01-25T02:36:57;18.80;83.40
59961;DHT22;55902;-37.980;-63.602;2023-01-25T02:39:28;18.70;82.70
59961;DHT22;55902;-37.980;-63.602;2023-01-25T02:42:03;18.60;84.10
59961;DHT22;55902;-37.980;-63.602;2023-01-25T02:44:32;18.60;83.40
59961;DHT22;55902;-37.980;-63.602;2023-01-25T02:47:00;18.60;80.80
59961;DHT22;55902;-37.980;-63.602;2023-01-25T02:49:28;18.60;84.10
59961;DHT22;55902;-37.980;-63.602;2023-01-25T02:51:56;18.50;84.70
59961;DHT22;55902;-37.980;-63.602;2023-01-25T02:54:27;18.40;84.00
59961;DHT22;55902;-37.980;-63.602;2023-01-25T02:56:56;18.40;83.20
59961;DHT22;55902;-37.980;-63.602;2023-01-25T02:59:27;18.40;84.70
59961;DHT22;55902;-37.980;-63.602;2023-01-25T03:12:03;18.10;83.60
59961;DHT22;55902;-37.980;-63.602;2023-01-25T03:14:30;18.10;87.00
59961;DHT22;55902;-37.980;-63.602;2023-01-25T03:17:01;18.00;84.70
59961;DHT22;55902;-37.980;-63.602;2023-01-25T03:19:29;18.00;85.70
59961;DHT22;55902;-37.980;-63.602;2023-01-25T03:21:59;18.00;87.80
59961;DHT22;55902;-37.980;-63.602;2023-01-25T03:24:27;17.90;88.20
59961;DHT22;55902;-37.980;-63.602;2023-01-25T03:26:55;17.80;88.30
59961;DHT22;55902;-37.980;-63.602;2023-01-25T03:29:43;17.70;88.10
59961;DHT22;55902;-37.980;-63.602;2023-01-25T03:32:13;17.70;88.00
59961;DHT22;55902;-37.980;-63.602;2023-01-25T03:34:41;17.60;88.70
59961;DHT22;55902;-37.980;-63.602;2023-01-25T03:37:08;17.60;88.30
59961;DHT22;55902;-37.980;-63.602;2023-01-25T03:39:36;17.50;88.90
59961;DHT22;55902;-37.980;-63.602;2023-01-25T03:42:04;17.40;87.90
59961;DHT22;55902;-37.980;-63.602;2023-01-25T03:44:32;17.40;88.80
59961;DHT22;55902;-37.980;-63.602;2023-01-25T03:47:06;17.40;89.10
59961;DHT22;55902;-37.980;-63.602;2023-01-25T03:49:33;17.30;87.30
59961;DHT22;55902;-37.980;-63.602;2023-01-25T03:52:00;17.30;87.80
59961;DHT22;55902;-37.980;-63.602;2023-01-25T03:54:28;17.30;88.00
59961;DHT22;55902;-37.980;-63.602;2023-01-25T03:56:55;17.20;88.80
59961;DHT22;55902;-37.980;-63.602;2023-01-25T03:59:22;17.10;88.80
59961;DHT22;55902;-37.980;-63.602;2023-01-25T04:01:50;17.10;88.90
59961;DHT22;55902;-37.980;-63.602;2023-01-25T04:04:17;17.10;88.30
59961;DHT22;55902;-37.980;-63.602;2023-01-25T04:06:48;17.00;87.70
59961;DHT22;55902;-37.980;-63.602;2023-01-25T04:09:15;17.00;89.40
59961;DHT22;55902;-37.980;-63.602;2023-01-25T04:11:42;16.90;88.40
59961;DHT22;55902;-37.980;-63.602;2023-01-25T04:14:10;16.80;90.20
59961;DHT22;55902;-37.980;-63.602;2023-01-25T04:16:37;16.70;90.70
59961;DHT22;55902;-37.980;-63.602;2023-01-25T04:19:04;16.60;90.90
59961;DHT22;55902;-37.980;-63.602;2023-01-25T04:21:31;16.50;91.90
59961;DHT22;55902;-37.980;-63.602;2023-01-25T04:23:59;16.40;91.90
59961;DHT22;55902;-37.980;-63.602;2023-01-25T04:26:26;16.40;91.70
59961;DHT22;55902;-37.980;-63.602;2023-01-25T04:28:53;16.40;91.50
59961;DHT22;55902;-37.980;-63.602;2023-01-25T04:31:20;16.30;92.30
59961;DHT22;55902;-37.980;-63.602;2023-01-25T04:33:47;16.30;92.80
59961;DHT22;55902;-37.980;-63.602;2023-01-25T04:36:14;16.20;93.50
59961;DHT22;55902;-37.980;-63.602;2023-01-25T04:38:41;16.20;93.80
59961;DHT22;55902;-37.980;-63.602;2023-01-25T04:41:09;16.20;93.80
59961;DHT22;55902;-37.980;-63.602;2023-01-25T04:54:10;16.10;96.20
59961;DHT22;55902;-37.980;-63.602;2023-01-25T04:56:44;16.00;96.60
59961;DHT22;55902;-37.980;-63.602;2023-01-25T04:59:11;16.00;96.50
59961;DHT22;55902;-37.980;-63.602;2023-01-25T05:01:41;15.90;97.40
59961;DHT22;55902;-37.980;-63.602;2023-01-25T05:04:08;15.90;97.70
59961;DHT22;55902;-37.980;-63.602;2023-01-25T05:06:35;15.80;98.60
59961;DHT22;55902;-37.980;-63.602;2023-01-25T05:09:02;15.70;99.70
59961;DHT22;55902;-37.980;-63.602;2023-01-25T05:11:29;15.70;98.80
59961;DHT22;55902;-37.980;-63.602;2023-01-25T05:13:58;15.60;99.90
59961;DHT22;55902;-37.980;-63.602;2023-01-25T05:16:28;15.50;99.90
59961;DHT22;55902;-37.980;-63.602;2023-01-25T05:18:58;15.40;99.90
59961;DHT22;55902;-37.980;-63.602;2023-01-25T05:21:25;15.30;99.90
59961;DHT22;55902;-37.980;-63.602;2023-01-25T05:24:10;15.30;99.90
59961;DHT22;55902;-37.980;-63.602;2023-01-25T05:26:37;15.20;99.90
59961;DHT22;55902;-37.980;-63.602;2023-01-25T05:29:22;15.20;99.90
59961;DHT22;55902;-37.980;-63.602;2023-01-25T05:31:49;15.10;99.90
59961;DHT22;55902;-37.980;-63.602;2023-01-25T05:34:19;15.10;99.90
59961;DHT22;55902;-37.980;-63.602;2023-01-25T05:36:50;15.00;99.90
59961;DHT22;55902;-37.980;-63.602;2023-01-25T05:39:21;15.00;99.90
59961;DHT22;55902;-37.980;-63.602;2023-01-25T05:41:51;14.90;99.90
59961;DHT22;55902;-37.980;-63.602;2023-01-25T05:44:18;14.80;99.90
59961;DHT22;55902;-37.980;-63.602;2023-01-25T05:46:45;14.80;99.90
59961;DHT22;55902;-37.980;-63.602;2023-01-25T05:49:12;14.80;99.90
59961;DHT22;55902;-37.980;-63.602;2023-01-25T05:51:43;14.80;99.90
59961;DHT22;55902;-37.980;-63.602;2023-01-25T05:54:16;14.80;99.90
59961;DHT22;55902;-37.980;-63.602;2023-01-25T05:56:49;14.80;99.90
59961;DHT22;55902;-37.980;-63.602;2023-01-25T05:59:16;14.80;99.90
59961;DHT22;55902;-37.980;-63.602;2023-01-25T06:01:46;14.90;99.90
59961;DHT22;55902;-37.980;-63.602;2023-01-25T06:04:17;14.90;99.90
59961;DHT22;55902;-37.980;-63.602;2023-01-25T06:06:46;14.90;99.90
59961;DHT22;55902;-37.980;-63.602;2023-01-25T06:09:14;14.90;99.90
59961;DHT22;55902;-37.980;-63.602;2023-01-25T06:11:44;14.80;99.90
59961;DHT22;55902;-37.980;-63.602;2023-01-25T06:14:13;14.80;99.90
59961;DHT22;55902;-37.980;-63.602;2023-01-25T06:16:41;14.80;99.90
59961;DHT22;55902;-37.980;-63.602;2023-01-25T06:19:12;14.80;99.90
59961;DHT22;55902;-37.980;-63.602;2023-01-25T06:21:39;14.80;99.90
59961;DHT22;55902;-37.980;-63.602;2023-01-25T06:24:09;14.80;99.90
59961;DHT22;55902;-37.980;-63.602;2023-01-25T06:26:40;14.80;99.90
59961;DHT22;55902;-37.980;-63.602;2023-01-25T06:29:10;14.80;99.90
59961;DHT22;55902;-37.980;-63.602;2023-01-25T06:31:39;14.80;99.90
59961;DHT22;55902;-37.980;-63.602;2023-01-25T06:34:06;14.80;99.90
59961;DHT22;55902;-37.980;-63.602;2023-01-25T06:36:37;14.80;99.90
59961;DHT22;55902;-37.980;-63.602;2023-01-25T06:39:04;14.80;99.90
59961;DHT22;55902;-37.980;-63.602;2023-01-25T06:41:32;14.80;99.90
59961;DHT22;55902;-37.980;-63.602;2023-01-25T06:44:02;14.80;99.90
59961;DHT22;55902;-37.980;-63.602;2023-01-25T06:46:31;14.80;99.90
59961;DHT22;55902;-37.980;-63.602;2023-01-25T06:48:59;14.80;99.90
59961;DHT22;55902;-37.980;-63.602;2023-01-25T06:51:26;14.80;99.90
59961;DHT22;55902;-37.980;-63.602;2023-01-25T06:53:53;14.80;99.90
59961;DHT22;55902;-37.980;-63.602;2023-01-25T06:56:22;14.70;99.90
59961;DHT22;55902;-37.980;-63.602;2023-01-25T06:58:51;14.70;99.90
59961;DHT22;55902;-37.980;-63.602;2023-01-25T07:01:23;14.70;99.90
59961;DHT22;55902;-37.980;-63.602;2023-01-25T07:03:59;14.70;99.90
59961;DHT22;55902;-37.980;-63.602;2023-01-25T07:06:31;14.70;99.90
59961;DHT22;55902;-37.980;-63.602;2023-01-25T07:09:04;14.60;99.90
59961;DHT22;55902;-37.980;-63.602;2023-01-25T07:11:31;14.60;99.90
59961;DHT22;55902;-37.980;-63.602;2023-01-25T07:13:58;14.60;99.90
59961;DHT22;55902;-37.980;-63.602;2023-01-25T07:16:34;14.60;99.90
59961;DHT22;55902;-37.980;-63.602;2023-01-25T07:19:08;14.60;99.90
59961;DHT22;55902;-37.980;-63.602;2023-01-25T07:21:36;14.50;99.90
59961;DHT22;55902;-37.980;-63.602;2023-01-25T07:24:04;14.50;99.90
59961;DHT22;55902;-37.980;-63.602;2023-01-25T07:26:32;14.50;99.90
59961;DHT22;55902;-37.980;-63.602;2023-01-25T07:28:59;14.50;99.90
59961;DHT22;55902;-37.980;-63.602;2023-01-25T07:31:30;14.40;99.90
59961;DHT22;55902;-37.980;-63.602;2023-01-25T07:33:58;14.40;99.90
59961;DHT22;55902;-37.980;-63.602;2023-01-25T07:36:25;14.40;99.90
59961;DHT22;55902;-37.980;-63.602;2023-01-25T07:38:53;14.40;99.90
59961;DHT22;55902;-37.980;-63.602;2023-01-25T07:41:24;14.30;99.90
59961;DHT22;55902;-37.980;-63.602;2023-01-25T07:43:53;14.20;99.90
59961;DHT22;55902;-37.980;-63.602;2023-01-25T07:46:23;14.20;99.90
59961;DHT22;55902;-37.980;-63.602;2023-01-25T07:48:51;14.30;99.90
59961;DHT22;55902;-37.980;-63.602;2023-01-25T07:51:21;14.20;99.90
59961;DHT22;55902;-37.980;-63.602;2023-01-25T07:56:23;14.30;99.90
59961;DHT22;55902;-37.980;-63.602;2023-01-25T07:58:55;14.20;99.90
59961;DHT22;55902;-37.980;-63.602;2023-01-25T08:01:25;14.30;99.90
59961;DHT22;55902;-37.980;-63.602;2023-01-25T08:03:54;14.30;99.90
59961;DHT22;55902;-37.980;-63.602;2023-01-25T08:09:43;14.20;99.90
59961;DHT22;55902;-37.980;-63.602;2023-01-25T08:12:10;14.20;99.90
59961;DHT22;55902;-37.980;-63.602;2023-01-25T08:14:37;14.20;99.90
59961;DHT22;55902;-37.980;-63.602;2023-01-25T08:17:04;14.20;99.90
59961;DHT22;55902;-37.980;-63.602;2023-01-25T08:19:35;14.20;99.90
59961;DHT22;55902;-37.980;-63.602;2023-01-25T08:22:02;14.10;99.90
59961;DHT22;55902;-37.980;-63.602;2023-01-25T08:24:29;14.20;99.90
59961;DHT22;55902;-37.980;-63.602;2023-01-25T08:26:56;14.20;99.90
59961;DHT22;55902;-37.980;-63.602;2023-01-25T08:29:26;14.20;99.90
59961;DHT22;55902;-37.980;-63.602;2023-01-25T08:31:53;14.20;99.90
59961;DHT22;55902;-37.980;-63.602;2023-01-25T08:34:20;14.20;99.90
59961;DHT22;55902;-37.980;-63.602;2023-01-25T08:36:47;14.10;99.90
59961;DHT22;55902;-37.980;-63.602;2023-01-25T08:39:15;14.10;99.90
59961;DHT22;55902;-37.980;-63.602;2023-01-25T08:41:46;14.10;99.90
59961;DHT22;55902;-37.980;-63.602;2023-01-25T08:44:13;14.10;99.90
59961;DHT22;55902;-37.980;-63.602;2023-01-25T08:46:40;14.10;99.90
59961;DHT22;55902;-37.980;-63.602;2023-01-25T08:49:11;14.10;99.90
59961;DHT22;55902;-37.980;-63.602;2023-01-25T08:51:41;14.10;99.90
59961;DHT22;55902;-37.980;-63.602;2023-01-25T08:54:11;14.00;99.90
59961;DHT22;55902;-37.980;-63.602;2023-01-25T08:56:44;14.00;99.90
59961;DHT22;55902;-37.980;-63.602;2023-01-25T08:59:12;14.00;99.90
59961;DHT22;55902;-37.980;-63.602;2023-01-25T09:01:39;14.00;99.90
59961;DHT22;55902;-37.980;-63.602;2023-01-25T09:04:10;14.00;99.90
59961;DHT22;55902;-37.980;-63.602;2023-01-25T09:06:37;14.00;99.90
59961;DHT22;55902;-37.980;-63.602;2023-01-25T09:09:04;14.00;99.90
59961;DHT22;55902;-37.980;-63.602;2023-01-25T09:11:40;14.00;99.90
59961;DHT22;55902;-37.980;-63.602;2023-01-25T09:14:07;14.00;99.90
59961;DHT22;55902;-37.980;-63.602;2023-01-25T09:16:34;14.00;99.90
59961;DHT22;55902;-37.980;-63.602;2023-01-25T09:19:03;14.00;99.90
59961;DHT22;55902;-37.980;-63.602;2023-01-25T09:21:30;14.00;99.90
59961;DHT22;55902;-37.980;-63.602;2023-01-25T09:24:02;14.00;99.90
59961;DHT22;55902;-37.980;-63.602;2023-01-25T09:26:29;14.00;99.90
59961;DHT22;55902;-37.980;-63.602;2023-01-25T09:28:56;14.00;99.90
59961;DHT22;55902;-37.980;-63.602;2023-01-25T09:31:23;14.00;99.90
59961;DHT22;55902;-37.980;-63.602;2023-01-25T09:33:50;14.10;99.90
59961;DHT22;55902;-37.980;-63.602;2023-01-25T09:36:18;14.10;99.90
59961;DHT22;55902;-37.980;-63.602;2023-01-25T09:38:46;14.10;99.90
59961;DHT22;55902;-37.980;-63.602;2023-01-25T09:41:30;14.10;99.90
59961;DHT22;55902;-37.980;-63.602;2023-01-25T09:50:15;14.30;99.90
59961;DHT22;55902;-37.980;-63.602;2023-01-25T09:55:23;14.30;99.90
59961;DHT22;55902;-37.980;-63.602;2023-01-25T09:57:54;14.30;99.90
59961;DHT22;55902;-37.980;-63.602;2023-01-25T10:00:30;14.40;99.90
59961;DHT22;55902;-37.980;-63.602;2023-01-25T10:05:50;14.40;99.90
59961;DHT22;55902;-37.980;-63.602;2023-01-25T10:10:57;14.40;99.90
59961;DHT22;55902;-37.980;-63.602;2023-01-25T10:13:26;14.50;99.90
59961;DHT22;55902;-37.980;-63.602;2023-01-25T10:16:05;14.50;99.90
59961;DHT22;55902;-37.980;-63.602;2023-01-25T10:18:55;14.50;99.90
59961;DHT22;55902;-37.980;-63.602;2023-01-25T10:21:38;14.60;99.90
59961;DHT22;55902;-37.980;-63.602;2023-01-25T10:24:30;14.70;99.90
59961;DHT22;55902;-37.980;-63.602;2023-01-25T10:27:38;14.70;99.90
59961;DHT22;55902;-37.980;-63.602;2023-01-25T10:30:31;14.90;99.90
59961;DHT22;55902;-37.980;-63.602;2023-01-25T10:33:14;15.00;99.90
59961;DHT22;55902;-37.980;-63.602;2023-01-25T10:35:46;15.00;99.90
59961;DHT22;55902;-37.980;-63.602;2023-01-25T10:38:41;15.10;99.90
59961;DHT22;55902;-37.980;-63.602;2023-01-25T10:41:24;15.20;99.90
59961;DHT22;55902;-37.980;-63.602;2023-01-25T10:44:01;15.30;99.90
59961;DHT22;55902;-37.980;-63.602;2023-01-25T10:49:42;15.60;99.90
59961;DHT22;55902;-37.980;-63.602;2023-01-25T10:52:22;15.80;99.90
59961;DHT22;55902;-37.980;-63.602;2023-01-25T10:55:14;16.00;99.90
59961;DHT22;55902;-37.980;-63.602;2023-01-25T11:00:24;16.30;99.90
59961;DHT22;55902;-37.980;-63.602;2023-01-25T11:02:53;16.40;99.90
59961;DHT22;55902;-37.980;-63.602;2023-01-25T11:05:33;16.40;99.90
59961;DHT22;55902;-37.980;-63.602;2023-01-25T11:08:38;16.50;99.90
59961;DHT22;55902;-37.980;-63.602;2023-01-25T11:11:37;16.50;99.90
59961;DHT22;55902;-37.980;-63.602;2023-01-25T11:14:17;16.50;99.90
59961;DHT22;55902;-37.980;-63.602;2023-01-25T11:16:48;16.60;98.70
59961;DHT22;55902;-37.980;-63.602;2023-01-25T11:19:39;16.70;97.10
59961;DHT22;55902;-37.980;-63.602;2023-01-25T11:22:22;16.80;96.20
59961;DHT22;55902;-37.980;-63.602;2023-01-25T11:24:49;17.00;95.70
59961;DHT22;55902;-37.980;-63.602;2023-01-25T11:27:22;17.10;92.10
59961;DHT22;55902;-37.980;-63.602;2023-01-25T11:30:10;17.20;93.90
59961;DHT22;55902;-37.980;-63.602;2023-01-25T11:48:27;17.50;87.90
59961;DHT22;55902;-37.980;-63.602;2023-01-25T11:51:20;17.60;86.50
59961;DHT22;55902;-37.980;-63.602;2023-01-25T11:54:08;17.70;85.70
59961;DHT22;55902;-37.980;-63.602;2023-01-25T11:56:59;17.90;79.20
59961;DHT22;55902;-37.980;-63.602;2023-01-25T12:06:12;18.40;74.50
59961;DHT22;55902;-37.980;-63.602;2023-01-25T12:09:12;19.00;68.80
59961;DHT22;55902;-37.980;-63.602;2023-01-25T12:17:31;20.80;64.70
59961;DHT22;55902;-37.980;-63.602;2023-01-25T12:23:14;21.60;61.30
59961;DHT22;55902;-37.980;-63.602;2023-01-25T12:28:53;22.10;57.00
59961;DHT22;55902;-37.980;-63.602;2023-01-25T12:34:16;22.70;60.10
59961;DHT22;55902;-37.980;-63.602;2023-01-25T12:36:48;23.00;56.60
59961;DHT22;55902;-37.980;-63.602;2023-01-25T12:39:26;23.10;58.10
59961;DHT22;55902;-37.980;-63.602;2023-01-25T12:45:05;23.70;56.80
59961;DHT22;55902;-37.980;-63.602;2023-01-25T12:48:00;23.90;54.70
59961;DHT22;55902;-37.980;-63.602;2023-01-25T12:50:46;23.90;52.50
59961;DHT22;55902;-37.980;-63.602;2023-01-25T12:53:19;24.10;55.80
59961;DHT22;55902;-37.980;-63.602;2023-01-25T12:55:48;24.10;53.80
59961;DHT22;55902;-37.980;-63.602;2023-01-25T12:58:27;24.30;53.30
59961;DHT22;55902;-37.980;-63.602;2023-01-25T13:01:21;24.40;51.80
59961;DHT22;55902;-37.980;-63.602;2023-01-25T13:04:23;24.70;52.50
59961;DHT22;55902;-37.980;-63.602;2023-01-25T13:10:25;25.30;50.50
59961;DHT22;55902;-37.980;-63.602;2023-01-25T13:12:58;25.40;48.60
59961;DHT22;55902;-37.980;-63.602;2023-01-25T13:15:36;25.70;50.20
59961;DHT22;55902;-37.980;-63.602;2023-01-25T13:20:58;26.10;47.40
59961;DHT22;55902;-37.980;-63.602;2023-01-25T13:23:38;26.20;46.60
59961;DHT22;55902;-37.980;-63.602;2023-01-25T13:28:54;26.40;46.40
59961;DHT22;55902;-37.980;-63.602;2023-01-25T13:34:12;26.70;46.70
59961;DHT22;55902;-37.980;-63.602;2023-01-25T13:36:58;26.80;45.30
59961;DHT22;55902;-37.980;-63.602;2023-01-25T13:42:33;27.00;44.20
59961;DHT22;55902;-37.980;-63.602;2023-01-25T13:45:19;26.80;42.70
59961;DHT22;55902;-37.980;-63.602;2023-01-25T13:48:22;27.10;44.60
59961;DHT22;55902;-37.980;-63.602;2023-01-25T13:50:54;27.30;42.40
59961;DHT22;55902;-37.980;-63.602;2023-01-25T13:53:24;27.40;43.00
59961;DHT22;55902;-37.980;-63.602;2023-01-25T13:56:01;27.80;44.30
59961;DHT22;55902;-37.980;-63.602;2023-01-25T13:58:31;28.10;41.20
59961;DHT22;55902;-37.980;-63.602;2023-01-25T14:01:05;27.90;41.90
59961;DHT22;55902;-37.980;-63.602;2023-01-25T14:06:23;28.20;42.00
59961;DHT22;55902;-37.980;-63.602;2023-01-25T14:08:56;28.40;41.60
59961;DHT22;55902;-37.980;-63.602;2023-01-25T14:11:30;28.40;41.10
59961;DHT22;55902;-37.980;-63.602;2023-01-25T14:17:18;28.60;41.00
59961;DHT22;55902;-37.980;-63.602;2023-01-25T14:19:54;28.80;39.90
59961;DHT22;55902;-37.980;-63.602;2023-01-25T14:22:29;28.70;41.20
59961;DHT22;55902;-37.980;-63.602;2023-01-25T14:25:20;28.60;40.60
59961;DHT22;55902;-37.980;-63.602;2023-01-25T14:27:56;28.70;41.20
59961;DHT22;55902;-37.980;-63.602;2023-01-25T14:30:24;28.80;40.90
59961;DHT22;55902;-37.980;-63.602;2023-01-25T14:32:55;28.80;40.70
59961;DHT22;55902;-37.980;-63.602;2023-01-25T14:38:01;28.90;40.80
59961;DHT22;55902;-37.980;-63.602;2023-01-25T14:40:30;28.90;41.00
59961;DHT22;55902;-37.980;-63.602;2023-01-25T14:43:14;28.70;39.80
59961;DHT22;55902;-37.980;-63.602;2023-01-25T14:52:09;29.00;40.40
59961;DHT22;55902;-37.980;-63.602;2023-01-25T14:54:59;29.00;40.00
59961;DHT22;55902;-37.980;-63.602;2023-01-25T14:57:53;29.00;40.40
59961;DHT22;55902;-37.980;-63.602;2023-01-25T15:00:26;29.10;41.00
59961;DHT22;55902;-37.980;-63.602;2023-01-25T15:03:03;29.00;40.80
59961;DHT22;55902;-37.980;-63.602;2023-01-25T15:05:36;29.00;41.00
59961;DHT22;55902;-37.980;-63.602;2023-01-25T15:10:36;29.00;40.50
59961;DHT22;55902;-37.980;-63.602;2023-01-25T15:15:58;29.10;40.70
59961;DHT22;55902;-37.980;-63.602;2023-01-25T15:21:27;29.20;40.50
59961;DHT22;55902;-37.980;-63.602;2023-01-25T15:24:06;29.30;40.60
59961;DHT22;55902;-37.980;-63.602;2023-01-25T15:26:41;29.40;40.30
59961;DHT22;55902;-37.980;-63.602;2023-01-25T15:29:15;29.40;40.20
59961;DHT22;55902;-37.980;-63.602;2023-01-25T15:32:16;29.50;40.40
59961;DHT22;55902;-37.980;-63.602;2023-01-25T15:34:51;29.60;40.30
59961;DHT22;55902;-37.980;-63.602;2023-01-25T15:37:25;29.70;40.00
59961;DHT22;55902;-37.980;-63.602;2023-01-25T15:39:52;29.70;39.80
59961;DHT22;55902;-37.980;-63.602;2023-01-25T15:42:25;29.60;40.10
59961;DHT22;55902;-37.980;-63.602;2023-01-25T15:44:54;29.70;40.60
59961;DHT22;55902;-37.980;-63.602;2023-01-25T15:47:31;30.10;40.80
59961;DHT22;55902;-37.980;-63.602;2023-01-25T15:49:59;30.30;40.60
59961;DHT22;55902;-37.980;-63.602;2023-01-25T15:52:32;30.60;40.90
59961;DHT22;55902;-37.980;-63.602;2023-01-25T15:55:03;30.70;39.50
59961;DHT22;55902;-37.980;-63.602;2023-01-25T15:57:37;30.60;39.30
59961;DHT22;55902;-37.980;-63.602;2023-01-25T16:00:20;30.60;39.80
59961;DHT22;55902;-37.980;-63.602;2023-01-25T16:02:53;30.70;39.00
59961;DHT22;55902;-37.980;-63.602;2023-01-25T16:05:26;30.70;39.30
59961;DHT22;55902;-37.980;-63.602;2023-01-25T16:07:54;30.60;38.60
59961;DHT22;55902;-37.980;-63.602;2023-01-25T16:10:23;30.60;38.90
59961;DHT22;55902;-37.980;-63.602;2023-01-25T16:12:58;30.80;39.60
59961;DHT22;55902;-37.980;-63.602;2023-01-25T16:15:27;30.80;38.40
59961;DHT22;55902;-37.980;-63.602;2023-01-25T16:17:55;30.90;38.60
59961;DHT22;55902;-37.980;-63.602;2023-01-25T16:20:26;31.00;37.80
59961;DHT22;55902;-37.980;-63.602;2023-01-25T16:22:54;31.20;38.10
59961;DHT22;55902;-37.980;-63.602;2023-01-25T16:25:22;31.30;40.10
59961;DHT22;55902;-37.980;-63.602;2023-01-25T16:27:53;31.70;38.00
59961;DHT22;55902;-37.980;-63.602;2023-01-25T16:30:25;32.00;37.00
59961;DHT22;55902;-37.980;-63.602;2023-01-25T16:32:56;32.20;37.50
59961;DHT22;55902;-37.980;-63.602;2023-01-25T16:35:28;32.60;36.30
59961;DHT22;55902;-37.980;-63.602;2023-01-25T16:37:56;32.50;35.10
59961;DHT22;55902;-37.980;-63.602;2023-01-25T16:40:29;32.40;35.20
59961;DHT22;55902;-37.980;-63.602;2023-01-25T16:43:05;32.40;35.60
59961;DHT22;55902;-37.980;-63.602;2023-01-25T16:45:33;32.60;36.70
59961;DHT22;55902;-37.980;-63.602;2023-01-25T16:48:00;33.00;36.30
59961;DHT22;55902;-37.980;-63.602;2023-01-25T16:50:34;33.20;36.20
59961;DHT22;55902;-37.980;-63.602;2023-01-25T16:53:02;33.50;35.30
59961;DHT22;55902;-37.980;-63.602;2023-01-25T16:55:30;33.50;34.40
59961;DHT22;55902;-37.980;-63.602;2023-01-25T16:58:03;33.60;34.40
59961;DHT22;55902;-37.980;-63.602;2023-01-25T17:00:31;33.70;34.50
59961;DHT22;55902;-37.980;-63.602;2023-01-25T17:03:01;33.70;33.40
59961;DHT22;55902;-37.980;-63.602;2023-01-25T17:05:31;34.00;34.10
59961;DHT22;55902;-37.980;-63.602;2023-01-25T17:08:04;33.60;32.70
59961;DHT22;55902;-37.980;-63.602;2023-01-25T17:10:34;33.70;33.30
59961;DHT22;55902;-37.980;-63.602;2023-01-25T17:13:02;33.50;32.40
59961;DHT22;55902;-37.980;-63.602;2023-01-25T17:15:33;33.50;32.20
59961;DHT22;55902;-37.980;-63.602;2023-01-25T17:18:00;33.60;32.30
59961;DHT22;55902;-37.980;-63.602;2023-01-25T17:20:27;33.60;31.60
59961;DHT22;55902;-37.980;-63.602;2023-01-25T17:22:54;33.80;32.00
59961;DHT22;55902;-37.980;-63.602;2023-01-25T17:25:22;34.00;32.00
59961;DHT22;55902;-37.980;-63.602;2023-01-25T17:27:54;34.10;32.00
59961;DHT22;55902;-37.980;-63.602;2023-01-25T17:30:21;34.10;31.90
59961;DHT22;55902;-37.980;-63.602;2023-01-25T17:32:55;34.20;32.40
59961;DHT22;55902;-37.980;-63.602;2023-01-25T17:35:27;34.50;31.80
59961;DHT22;55902;-37.980;-63.602;2023-01-25T17:37:54;34.50;33.30
59961;DHT22;55902;-37.980;-63.602;2023-01-25T17:40:22;34.60;31.80
59961;DHT22;55902;-37.980;-63.602;2023-01-25T17:42:50;34.70;31.90
59961;DHT22;55902;-37.980;-63.602;2023-01-25T17:45:21;34.70;32.60
59961;DHT22;55902;-37.980;-63.602;2023-01-25T17:47:48;35.00;32.90
59961;DHT22;55902;-37.980;-63.602;2023-01-25T17:50:17;35.10;31.40
59961;DHT22;55902;-37.980;-63.602;2023-01-25T17:52:44;35.10;32.00
59961;DHT22;55902;-37.980;-63.602;2023-01-25T17:55:12;35.20;32.30
59961;DHT22;55902;-37.980;-63.602;2023-01-25T17:57:39;35.30;31.80
59961;DHT22;55902;-37.980;-63.602;2023-01-25T18:00:11;35.30;31.70